Time;durP1;ratioP1;P1;durP2;ratioP2;P2;SDS_P1;SDS_P2;PMS_P1;PMS_P2;Temp;Humidity;BMP_temperature;BMP_pressure;BME280_temperature;BME280_humidity;BME280_pressure;Samples;Min_cycle;Max_cycle;Signal;HPM_P1;HPM_P2
2021/11/18 00:00:35;;;;;;;3.97;3.60;;;;;;;3.83;100.00;96865.41;5089790;28;24986;-75
2021/11/18 00:03:02;;;;;;;4.80;3.97;;;;;;;3.81;100.00;96864.59;5090010;28;24421;-75
2021/11/18 00:05:30;;;;;;;4.75;3.90;;;;;;;3.87;100.00;96861.91;5089966;28;24417;-75
2021/11/18 00:07:57;;;;;;;5.45;4.10;;;;;;;3.85;100.00;96866.22;5090141;28;24436;-75
2021/11/18 00:10:28;;;;;;;4.43;3.50;;;;;;;3.88;100.00;96856.75;5093810;28;24425;-75
2021/11/18 00:12:57;;;;;;;4.80;3.92;;;;;;;3.88;100.00;96856.75;5093524;28;24449;-75
2021/11/18 00:15:26;;;;;;;4.50;3.67;;;;;;;3.87;100.00;96855.06;5093487;28;24406;-75
2021/11/18 00:17:54;;;;;;;4.55;3.65;;;;;;;3.94;100.00;96855.81;5093692;28;24422;-75
2021/11/18 00:20:21;;;;;;;4.00;3.60;;;;;;;4.00;100.00;96853.09;5093429;28;24427;-75
2021/11/18 00:22:47;;;;;;;4.07;3.67;;;;;;;4.02;100.00;96847.97;5093578;28;24421;-75
2021/11/18 00:25:15;;;;;;;7.60;3.80;;;;;;;4.03;100.00;96852.22;5093094;28;24410;-75
2021/11/18 00:27:43;;;;;;;4.30;3.90;;;;;;;3.97;100.00;96849.75;5093286;28;24504;-75
2021/11/18 00:30:12;;;;;;;5.45;4.07;;;;;;;3.91;100.00;96850.72;5093413;28;24425;-75
2021/11/18 00:32:39;;;;;;;4.95;3.72;;;;;;;3.87;100.00;96849.09;5093267;28;24445;-75
2021/11/18 00:35:08;;;;;;;4.07;3.63;;;;;;;3.96;100.00;96853.19;5093012;28;24414;-75
2021/11/18 00:37:34;;;;;;;4.32;3.92;;;;;;;4.01;100.00;96859.09;5093274;28;24811;-75
2021/11/18 00:40:01;;;;;;;3.55;3.20;;;;;;;3.94;100.00;96854.97;5093093;28;24449;-75
2021/11/18 00:42:28;;;;;;;4.82;3.70;;;;;;;3.95;100.00;96854.09;5092920;28;24433;-75
2021/11/18 00:44:57;;;;;;;4.68;4.20;;;;;;;3.95;100.00;96860.06;5092690;28;24998;-75
2021/11/18 00:47:23;;;;;;;6.25;3.83;;;;;;;3.96;100.00;96868.56;5093166;28;24510;-75
2021/11/18 00:49:51;;;;;;;6.15;3.70;;;;;;;3.94;100.00;96857.53;5093063;28;24422;-75
2021/11/18 00:52:18;;;;;;;4.78;3.90;;;;;;;3.99;100.00;96856.56;5092966;28;24445;-75
2021/11/18 00:54:45;;;;;;;4.00;3.65;;;;;;;3.96;100.00;96860.88;5092404;28;24418;-75
2021/11/18 00:57:11;;;;;;;3.42;3.13;;;;;;;4.00;100.00;96860.78;5093269;28;24442;-76
2021/11/18 00:59:38;;;;;;;3.90;3.50;;;;;;;4.00;100.00;96855.66;5092845;28;24429;-75
2021/11/18 01:02:06;;;;;;;3.72;3.40;;;;;;;4.03;100.00;96857.34;5092685;28;24799;-75
2021/11/18 01:04:32;;;;;;;3.88;3.53;;;;;;;4.04;100.00;96854.75;5092474;28;24425;-75
2021/11/18 01:06:59;;;;;;;3.97;3.50;;;;;;;4.07;100.00;96858.97;5092617;28;24425;-75
2021/11/18 01:09:27;;;;;;;4.63;3.97;;;;;;;4.06;100.00;96859.84;5092378;28;24422;-75
2021/11/18 01:11:53;;;;;;;3.83;3.38;;;;;;;4.07;100.00;96853.84;5092446;28;24990;-75
2021/11/18 01:14:22;;;;;;;4.28;3.58;;;;;;;4.12;100.00;96852.03;5092803;28;24422;-75
2021/11/18 01:16:50;;;;;;;9.10;3.70;;;;;;;4.11;100.00;96851.16;5092261;28;24421;-75
2021/11/18 01:19:18;;;;;;;4.32;3.65;;;;;;;4.04;100.00;96856.44;5092029;28;24517;-75
2021/11/18 01:21:48;;;;;;;4.22;3.22;;;;;;;3.99;100.00;96859.13;5092372;28;24488;-76
2021/11/18 01:24:15;;;;;;;4.93;4.07;;;;;;;4.05;100.00;96840.22;5092201;28;24984;-76
2021/11/18 01:26:41;;;;;;;4.43;3.67;;;;;;;4.07;100.00;96848.69;5092173;28;24811;-76
2021/11/18 01:29:08;;;;;;;4.13;3.65;;;;;;;4.08;100.00;96845.28;5092152;28;24411;-76
2021/11/18 01:31:35;;;;;;;4.55;3.90;;;;;;;4.08;100.00;96858.94;5091999;28;24512;-76
2021/11/18 01:34:04;;;;;;;4.63;3.67;;;;;;;4.10;100.00;96872.56;5092151;28;24430;-76
2021/11/18 01:36:32;;;;;;;3.88;3.38;;;;;;;4.11;100.00;96864.00;5091723;28;24982;-76
2021/11/18 01:38:59;;;;;;;4.77;3.70;;;;;;;4.14;100.00;96863.09;5092303;28;24484;-76
2021/11/18 01:41:28;;;;;;;3.80;3.30;;;;;;;4.17;100.00;96875.03;5091967;28;24418;-76
2021/11/18 01:43:57;;;;;;;4.70;3.25;;;;;;;4.11;100.00;96881.94;5092028;28;24422;-76
2021/11/18 01:46:28;;;;;;;4.78;3.55;;;;;;;4.12;100.00;96882.81;5091693;28;24436;-76
2021/11/18 01:48:55;;;;;;;3.90;3.50;;;;;;;4.14;100.00;96893.84;5091708;28;24433;-76
2021/11/18 01:51:25;;;;;;;4.60;3.30;;;;;;;4.17;100.00;96890.41;5091651;28;24425;-76
2021/11/18 01:53:53;;;;;;;5.60;3.42;;;;;;;4.14;100.00;96891.28;5091738;28;24442;-76
2021/11/18 01:56:22;;;;;;;4.80;3.60;;;;;;;4.14;100.00;96886.16;5091433;28;24473;-76
2021/11/18 01:58:52;;;;;;;4.68;3.50;;;;;;;4.17;100.00;96873.28;5091666;28;24423;-76
2021/11/18 02:01:20;;;;;;;3.42;3.13;;;;;;;4.18;100.00;96877.53;5091432;28;24445;-75
2021/11/18 02:03:47;;;;;;;4.55;3.42;;;;;;;4.21;100.00;96881.78;5091512;28;25042;-76
2021/11/18 02:06:21;;;;;;;3.80;3.13;;;;;;;4.19;100.00;96876.69;5091361;28;24414;-76
2021/11/18 02:08:48;;;;;;;4.72;3.17;;;;;;;4.20;100.00;96874.97;5091459;28;24955;-76
2021/11/18 02:11:26;;;;;;;5.03;3.30;;;;;;;4.16;100.00;96873.34;5091229;28;24426;-76
2021/11/18 02:13:54;;;;;;;5.72;3.90;;;;;;;4.11;100.00;96865.72;5091217;28;24442;-76
2021/11/18 02:16:21;;;;;;;5.38;3.40;;;;;;;4.17;100.00;96877.59;5091258;28;24522;-76
2021/11/18 02:18:48;;;;;;;5.82;3.67;;;;;;;4.01;100.00;96884.72;5091511;28;24779;-76
2021/11/18 02:21:16;;;;;;;3.95;3.22;;;;;;;3.97;100.00;96883.94;5091111;28;24434;-76
2021/11/18 02:23:45;;;;;;;3.45;2.92;;;;;;;3.98;100.00;96885.63;5091096;28;24978;-76
2021/11/18 02:26:12;;;;;;;3.17;2.83;;;;;;;4.06;100.00;96886.31;5090832;28;24963;-76
2021/11/18 02:28:42;;;;;;;4.40;3.00;;;;;;;4.12;100.00;96891.34;5091287;28;24429;-76
2021/11/18 02:31:17;;;;;;;4.07;3.30;;;;;;;4.17;100.00;96893.81;5090603;28;24433;-76
2021/11/18 02:33:44;;;;;;;3.42;3.13;;;;;;;4.15;100.00;96890.41;5090833;28;24800;-76
2021/11/18 02:36:10;;;;;;;3.42;2.90;;;;;;;4.11;100.00;96899.88;5090736;28;24425;-76
2021/11/18 02:38:38;;;;;;;4.75;3.55;;;;;;;4.18;100.00;96899.78;5090974;28;24417;-76
2021/11/18 02:41:07;;;;;;;3.28;2.88;;;;;;;4.15;100.00;96907.53;5090630;28;24418;-76
2021/11/18 02:43:33;;;;;;;5.80;3.50;;;;;;;4.08;100.00;96902.53;5090970;28;24434;-76
2021/11/18 02:46:00;;;;;;;4.85;3.33;;;;;;;4.10;100.00;96905.91;5090481;28;24426;-75
2021/11/18 02:48:28;;;;;;;3.67;3.30;;;;;;;4.14;100.00;96911.81;5090921;28;24509;-75
2021/11/18 02:50:59;;;;;;;5.07;4.00;;;;;;;4.19;100.00;96915.16;5090878;28;24513;-75
2021/11/18 02:53:26;;;;;;;9.98;5.68;;;;;;;4.20;100.00;96910.84;5091004;28;24449;-76
2021/11/18 02:55:55;;;;;;;5.18;4.78;;;;;;;4.23;100.00;96913.38;5090591;28;24487;-76
2021/11/18 02:58:22;;;;;;;5.15;4.22;;;;;;;4.27;100.00;96910.72;5090894;28;24776;-76
2021/11/18 03:00:55;;;;;;;3.92;3.53;;;;;;;4.25;100.00;96911.59;5090532;28;24974;-76
2021/11/18 03:03:21;;;;;;;3.78;3.30;;;;;;;4.27;100.00;96920.97;5090638;28;24429;-76
2021/11/18 03:05:49;;;;;;;4.05;3.30;;;;;;;4.25;100.00;96915.00;5090291;28;24433;-76
2021/11/18 03:08:16;;;;;;;4.35;3.10;;;;;;;4.26;100.00;96915.84;5090385;28;24429;-76
2021/11/18 03:10:43;;;;;;;3.28;2.97;;;;;;;4.27;100.00;96917.56;5090634;28;24426;-76
2021/11/18 03:13:12;;;;;;;3.33;3.03;;;;;;;4.25;100.00;96917.56;5090587;28;24468;-76
2021/11/18 03:15:38;;;;;;;3.63;3.20;;;;;;;4.27;100.00;96908.16;5090326;28;24482;-76
2021/11/18 03:18:05;;;;;;;3.60;3.30;;;;;;;4.34;100.00;96908.88;5090434;28;24506;-76
2021/11/18 03:20:32;;;;;;;3.23;2.93;;;;;;;4.32;100.00;96915.75;5090045;28;24430;-76
2021/11/18 03:22:59;;;;;;;3.55;3.20;;;;;;;4.36;100.00;96917.38;5090387;28;24414;-76
2021/11/18 03:25:30;;;;;;;3.35;2.80;;;;;;;4.35;100.00;96918.25;5090286;28;24975;-76
2021/11/18 03:27:56;;;;;;;3.05;2.75;;;;;;;4.38;100.00;96913.06;5090563;28;24471;-76
2021/11/18 03:30:29;;;;;;;3.33;3.03;;;;;;;4.32;100.00;96918.31;5090336;28;24441;-76
2021/11/18 03:32:57;;;;;;;4.77;3.40;;;;;;;4.34;100.00;96922.53;5090277;28;24544;-76
2021/11/18 03:35:25;;;;;;;3.20;2.90;;;;;;;4.25;100.00;96929.56;5089899;28;24430;-76
2021/11/18 03:37:52;;;;;;;5.00;3.13;;;;;;;4.17;100.00;96931.44;5090401;28;24434;-76
2021/11/18 03:40:20;;;;;;;8.20;3.50;;;;;;;4.09;100.00;96924.72;5090279;28;24422;-76
2021/11/18 03:42:47;;;;;;;3.35;3.05;;;;;;;4.14;100.00;96916.94;5091863;28;24421;-76
2021/11/18 03:45:15;;;;;;;3.47;3.10;;;;;;;4.14;100.00;96911.81;5094034;28;24422;-76
2021/11/18 03:47:43;;;;;;;3.50;3.20;;;;;;;4.17;100.00;96916.03;5094004;28;24536;-76
2021/11/18 03:50:11;;;;;;;6.22;3.38;;;;;;;4.04;100.00;96920.53;5094280;28;24424;-76
2021/11/18 03:52:38;;;;;;;3.03;2.83;;;;;;;4.07;100.00;96912.78;5094099;28;24847;-76
2021/11/18 03:55:06;;;;;;;4.07;3.20;;;;;;;4.15;100.00;96922.91;5093860;28;24512;-76
2021/11/18 03:57:32;;;;;;;4.28;3.30;;;;;;;4.18;100.00;96913.44;5093968;28;24779;-76
2021/11/18 03:59:59;;;;;;;5.95;3.03;;;;;;;4.21;100.00;96925.38;5093884;28;24508;-76
2021/11/18 04:02:26;;;;;;;3.20;2.90;;;;;;;4.26;100.00;96928.66;5094075;28;24441;-76
2021/11/18 04:04:59;;;;;;;3.47;2.67;;;;;;;4.28;100.00;96932.91;5093648;28;24426;-76
2021/11/18 04:07:26;;;;;;;3.35;2.90;;;;;;;4.25;100.00;96939.81;5093755;28;24508;-76
2021/11/18 04:09:53;;;;;;;4.88;3.28;;;;;;;4.09;100.00;96939.25;5090444;28;24816;-76
2021/11/18 04:12:19;;;;;;;3.50;2.80;;;;;;;4.04;100.00;96941.91;5085166;28;24445;-76
2021/11/18 04:14:47;;;;;;;3.38;3.08;;;;;;;3.98;100.00;96943.75;5085763;28;24535;-76
2021/11/18 04:17:16;;;;;;;3.83;3.22;;;;;;;3.98;100.00;96946.31;5085040;28;24952;-76
2021/11/18 04:19:43;;;;;;;4.13;3.20;;;;;;;3.99;100.00;96943.69;5073334;28;24488;-75
2021/11/18 04:22:11;;;;;;;3.63;3.33;;;;;;;4.02;100.00;96951.34;5084906;28;24975;-76
2021/11/18 04:24:40;;;;;;;3.42;3.13;;;;;;;3.96;100.00;96959.13;5073088;28;24418;-76
2021/11/18 04:27:07;;;;;;;5.10;3.45;;;;;;;4.04;100.00;96953.88;5052525;28;24422;-76
2021/11/18 04:29:33;;;;;;;3.28;2.90;;;;;;;4.10;100.00;96951.19;5053042;28;24431;-76
2021/11/18 04:32:03;;;;;;;3.80;2.88;;;;;;;4.16;100.00;96942.56;5052012;28;24431;-76
2021/11/18 04:34:30;;;;;;;4.90;2.90;;;;;;;4.19;100.00;96934.78;5044089;28;24991;-75
2021/11/18 04:36:57;;;;;;;3.13;2.83;;;;;;;4.24;100.00;96948.38;5053220;28;24534;-76
2021/11/18 04:39:25;;;;;;;3.72;2.78;;;;;;;4.26;100.00;96949.19;5053118;28;24796;-76
2021/11/18 04:41:52;;;;;;;3.45;2.97;;;;;;;4.27;100.00;96948.34;5052702;28;24426;-75
2021/11/18 04:44:20;;;;;;;3.92;3.15;;;;;;;4.27;100.00;96956.88;5052813;28;24987;-76
2021/11/18 04:46:46;;;;;;;3.50;3.20;;;;;;;4.29;100.00;96951.69;5052506;28;24460;-76
2021/11/18 04:49:13;;;;;;;4.20;3.40;;;;;;;4.25;100.00;96962.88;5052809;28;24430;-75
2021/11/18 04:51:39;;;;;;;3.40;3.10;;;;;;;4.22;100.00;96971.47;5052751;28;24415;-76
2021/11/18 04:54:06;;;;;;;4.50;3.40;;;;;;;4.22;100.00;96966.34;5051753;28;24439;-76
2021/11/18 04:56:35;;;;;;;3.53;3.22;;;;;;;4.18;100.00;96976.69;5052143;28;24427;-76
2021/11/18 04:59:03;;;;;;;4.57;3.40;;;;;;;4.22;100.00;96980.88;5052683;28;24423;-76
2021/11/18 05:01:29;;;;;;;3.58;3.28;;;;;;;4.27;100.00;96985.06;5052686;28;24450;-76
2021/11/18 05:03:56;;;;;;;3.30;3.00;;;;;;;4.32;100.00;96987.56;5052480;28;24976;-76
2021/11/18 05:06:23;;;;;;;3.63;3.15;;;;;;;4.32;100.00;96983.25;5052124;28;24426;-76
2021/11/18 05:08:51;;;;;;;3.60;3.00;;;;;;;4.34;100.00;96989.22;5052367;28;24427;-76
2021/11/18 05:11:18;;;;;;;3.05;2.75;;;;;;;4.35;100.00;96990.06;5052461;28;24971;-75
2021/11/18 05:13:47;;;;;;;3.92;3.30;;;;;;;4.38;100.00;96984.88;5052360;28;24450;-75
2021/11/18 05:16:16;;;;;;;5.70;2.75;;;;;;;4.42;100.00;96991.63;5052459;28;24415;-75
2021/11/18 05:18:43;;;;;;;2.92;2.53;;;;;;;4.42;100.00;96986.50;5052151;28;24430;-75
2021/11/18 05:21:12;;;;;;;4.90;2.60;;;;;;;4.45;100.00;96978.75;5052385;28;24807;-76
2021/11/18 05:23:40;;;;;;;4.43;3.10;;;;;;;4.44;100.00;96977.03;5052051;28;24473;-75
2021/11/18 05:26:07;;;;;;;3.05;2.85;;;;;;;4.40;100.00;96972.84;5052129;28;24412;-76
2021/11/18 05:28:35;;;;;;;3.30;3.00;;;;;;;4.44;100.00;96991.59;5052084;28;24785;-76
2021/11/18 05:31:06;;;;;;;7.33;3.10;;;;;;;4.45;100.00;96981.31;5052050;28;24438;-76
2021/11/18 05:33:33;;;;;;;3.83;3.50;;;;;;;4.45;100.00;96989.03;5051956;28;24474;-76
2021/11/18 05:36:00;;;;;;;3.50;3.20;;;;;;;4.47;100.00;96987.25;5051577;28;24957;-75
2021/11/18 05:38:27;;;;;;;4.07;3.40;;;;;;;4.51;100.00;96993.16;5052112;28;24840;-76
2021/11/18 05:40:54;;;;;;;4.18;3.30;;;;;;;4.55;100.00;96987.94;5052052;28;24442;-76
2021/11/18 05:43:22;;;;;;;4.57;4.10;;;;;;;4.51;100.00;96993.16;5051866;28;24793;-76
2021/11/18 05:45:49;;;;;;;4.30;3.73;;;;;;;4.46;100.00;96998.41;5051457;28;24485;-76
2021/11/18 05:48:19;;;;;;;4.68;3.88;;;;;;;4.49;100.00;97005.19;5051778;28;24426;-76
2021/11/18 05:50:50;;;;;;;4.70;4.10;;;;;;;4.51;100.00;97006.00;5051694;28;24483;-77
2021/11/18 05:53:17;;;;;;;7.32;3.58;;;;;;;4.51;100.00;97011.97;5051694;28;24448;-76
2021/11/18 05:55:44;;;;;;;3.40;3.10;;;;;;;4.65;100.00;97009.16;5051436;28;24414;-76
2021/11/18 05:58:10;;;;;;;3.10;2.80;;;;;;;4.59;100.00;97004.13;5051674;28;24782;-76
2021/11/18 06:00:38;;;;;;;3.28;2.97;;;;;;;4.54;100.00;97006.78;5051404;28;24435;-76
2021/11/18 06:03:04;;;;;;;3.30;2.70;;;;;;;4.51;100.00;97004.28;5051313;28;24423;-76
2021/11/18 06:05:33;;;;;;;3.78;2.78;;;;;;;4.51;100.00;97009.41;5050468;28;25013;-75
2021/11/18 06:08:00;;;;;;;3.45;2.80;;;;;;;4.57;100.00;97013.59;5043242;28;25015;-76
2021/11/18 06:10:29;;;;;;;6.50;3.15;;;;;;;4.92;100.00;97015.44;5031326;28;24436;-76
2021/11/18 06:12:57;;;;;;;3.25;2.80;;;;;;;4.81;100.00;97013.09;5030759;28;24439;-76
2021/11/18 06:15:24;;;;;;;3.75;2.60;;;;;;;4.68;100.00;97010.81;5030813;28;24439;-76
2021/11/18 06:17:51;;;;;;;4.55;3.10;;;;;;;4.47;100.00;97017.19;5030924;28;24971;-77
2021/11/18 06:20:19;;;;;;;4.90;3.78;;;;;;;4.32;100.00;97018.31;5030932;28;24446;-76
2021/11/18 06:22:48;;;;;;;5.50;4.27;;;;;;;4.28;100.00;97009.00;5036036;28;24438;-76
2021/11/18 06:25:17;;;;;;;4.45;4.10;;;;;;;4.27;100.00;97015.00;5050646;28;24431;-76
2021/11/18 06:27:46;;;;;;;5.40;4.03;;;;;;;4.26;100.00;97023.56;5050887;28;24805;-76
2021/11/18 06:30:15;;;;;;;5.18;4.40;;;;;;;4.31;100.00;97026.91;5050412;28;24435;-76
2021/11/18 06:32:42;;;;;;;5.60;5.10;;;;;;;4.35;100.00;97026.81;5050831;28;24430;-76
2021/11/18 06:35:09;;;;;;;6.78;5.60;;;;;;;4.36;100.00;97027.66;5050600;28;24439;-76
2021/11/18 06:37:35;;;;;;;5.53;4.32;;;;;;;4.42;100.00;97031.84;5050449;28;24438;-76
2021/11/18 06:40:04;;;;;;;4.47;3.92;;;;;;;4.37;100.00;97037.03;5050534;28;24438;-76
2021/11/18 06:42:31;;;;;;;4.00;3.70;;;;;;;4.35;100.00;97029.38;5050339;28;24415;-76
2021/11/18 06:44:58;;;;;;;3.67;3.28;;;;;;;4.34;100.00;97029.41;5050285;28;24530;-76
2021/11/18 06:47:24;;;;;;;4.23;3.60;;;;;;;4.31;100.00;97035.44;5050344;28;24427;-76
2021/11/18 06:49:52;;;;;;;4.35;3.60;;;;;;;4.34;100.00;97034.53;5050894;28;24423;-76
2021/11/18 06:52:19;;;;;;;5.25;3.65;;;;;;;4.37;100.00;97044.72;5050664;28;24534;-76
2021/11/18 06:54:47;;;;;;;3.80;3.45;;;;;;;4.42;100.00;97047.22;5050637;28;24450;-76
2021/11/18 06:57:17;;;;;;;5.22;3.67;;;;;;;4.33;100.00;97050.78;5051256;28;24427;-76
2021/11/18 06:59:43;;;;;;;6.72;4.60;;;;;;;4.36;100.00;97056.72;5050550;28;24466;-75
2021/11/18 07:02:11;;;;;;;4.43;3.70;;;;;;;4.34;100.00;97052.50;5050554;28;24422;-75
2021/11/18 07:04:37;;;;;;;4.35;3.90;;;;;;;4.34;100.00;97055.06;5050136;28;24427;-75
2021/11/18 07:07:04;;;;;;;5.68;4.40;;;;;;;4.34;100.00;97055.91;5050086;28;24427;-75
2021/11/18 07:09:31;;;;;;;4.85;4.35;;;;;;;4.38;100.00;97056.69;5050341;28;24451;-75
2021/11/18 07:11:58;;;;;;;4.70;4.05;;;;;;;4.40;100.00;97062.63;5050058;28;24430;-75
2021/11/18 07:14:26;;;;;;;4.50;4.05;;;;;;;4.39;100.00;97075.50;5049967;28;24446;-75
2021/11/18 07:16:52;;;;;;;5.55;4.00;;;;;;;4.35;100.00;97077.25;5050014;28;24430;-75
2021/11/18 07:19:18;;;;;;;3.90;3.50;;;;;;;4.41;100.00;97063.47;5049988;28;24422;-75
2021/11/18 07:21:45;;;;;;;6.03;3.75;;;;;;;4.44;100.00;97066.00;5049839;28;24789;-75
2021/11/18 07:24:12;;;;;;;5.07;4.25;;;;;;;4.45;100.00;97065.09;5050040;28;24423;-75
2021/11/18 07:26:39;;;;;;;4.25;3.85;;;;;;;4.42;100.00;97078.84;5050099;28;24473;-75
2021/11/18 07:29:08;;;;;;;8.30;4.50;;;;;;;4.38;100.00;97079.78;5050275;28;24461;-75
2021/11/18 07:31:36;;;;;;;6.87;4.50;;;;;;;4.43;100.00;97087.38;5050173;28;24442;-75
2021/11/18 07:34:05;;;;;;;7.10;5.40;;;;;;;4.45;100.00;97096.75;5049955;28;24450;-75
2021/11/18 07:36:31;;;;;;;11.13;4.80;;;;;;;4.45;100.00;97094.19;5049558;28;24443;-75
2021/11/18 07:38:57;;;;;;;5.00;4.13;;;;;;;4.40;100.00;97098.53;5049990;28;24535;-75
2021/11/18 07:41:24;;;;;;;7.13;4.70;;;;;;;4.39;100.00;97102.00;5037837;23;24559;-74
2021/11/18 07:43:51;;;;;;;4.55;4.15;;;;;;;4.39;100.00;97104.56;5030211;28;24419;-74
2021/11/18 07:46:18;;;;;;;6.75;4.70;;;;;;;4.38;100.00;97120.81;5030167;28;24419;-75
2021/11/18 07:48:48;;;;;;;8.73;4.50;;;;;;;4.44;100.00;97113.00;5030108;28;24427;-74
2021/11/18 07:51:17;;;;;;;7.07;5.47;;;;;;;4.40;100.00;97116.50;5018729;28;24435;-74
2021/11/18 07:53:45;;;;;;;7.20;5.53;;;;;;;4.38;100.00;97119.97;5010352;28;24496;-75
2021/11/18 07:56:13;;;;;;;6.38;5.22;;;;;;;4.42;100.00;97119.06;5010342;28;24428;-75
2021/11/18 07:58:39;;;;;;;5.50;4.95;;;;;;;4.42;100.00;97122.47;5010689;28;24435;-75
2021/11/18 08:01:06;;;;;;;5.90;5.03;;;;;;;4.39;100.00;97119.94;5010609;28;24420;-76
2021/11/18 08:03:34;;;;;;;4.40;4.00;;;;;;;4.43;100.00;97116.44;5011096;28;24432;-75
2021/11/18 08:06:03;;;;;;;6.65;4.80;;;;;;;4.50;100.00;97112.06;5014045;28;24432;-76
2021/11/18 08:08:30;;;;;;;5.28;4.35;;;;;;;4.56;100.00;97109.38;5010725;28;24428;-75
2021/11/18 08:10:56;;;;;;;4.70;4.25;;;;;;;4.65;100.00;97103.25;5010663;28;24424;-74
2021/11/18 08:13:23;;;;;;;5.10;4.60;;;;;;;4.71;100.00;97113.38;5010719;28;24426;-74
2021/11/18 08:15:49;;;;;;;5.82;5.13;;;;;;;4.72;100.00;97118.50;5009996;28;24471;-74
2021/11/18 08:18:16;;;;;;;5.45;4.82;;;;;;;4.78;100.00;97117.53;5010708;28;24420;-75
2021/11/18 08:20:42;;;;;;;6.43;4.93;;;;;;;4.80;100.00;97113.22;5010663;28;24436;-76
2021/11/18 08:23:11;;;;;;;5.55;4.70;;;;;;;4.82;100.00;97112.34;5010472;28;24435;-75
2021/11/18 08:25:38;;;;;;;5.45;4.50;;;;;;;4.87;100.00;97109.69;5010349;28;24420;-76
2021/11/18 08:28:05;;;;;;;5.20;3.80;;;;;;;4.86;100.00;97115.69;5010788;28;24428;-76
2021/11/18 08:30:35;;;;;;;6.20;4.60;;;;;;;4.84;100.00;97120.84;5012890;28;24443;-76
2021/11/18 08:33:05;;;;;;;8.25;4.82;;;;;;;4.81;100.00;97123.47;5014170;28;24424;-73
2021/11/18 08:35:35;;;;;;;6.82;4.47;;;;;;;4.85;100.00;97117.38;5020825;28;24805;-75
2021/11/18 08:38:02;;;;;;;5.00;4.47;;;;;;;4.93;100.00;97114.72;5023299;28;24439;-75
2021/11/18 08:40:31;;;;;;;13.40;5.10;;;;;;;4.97;100.00;97126.59;5033084;28;24438;-75
2021/11/18 08:42:58;;;;;;;6.35;4.60;;;;;;;5.02;100.00;97126.50;5033212;28;24427;-74
2021/11/18 08:45:25;;;;;;;8.53;6.10;;;;;;;5.06;100.00;97129.00;5028958;28;25012;-76
2021/11/18 08:47:52;;;;;;;12.57;5.80;;;;;;;5.20;100.00;97130.44;5013446;28;24405;-76
2021/11/18 08:50:21;;;;;;;7.50;5.70;;;;;;;5.14;100.00;97130.56;5013489;28;24428;-75
2021/11/18 08:52:48;;;;;;;6.72;4.97;;;;;;;5.15;100.00;97127.94;5013489;28;25015;-76
2021/11/18 08:55:19;;;;;;;5.82;4.97;;;;;;;5.21;100.00;97125.28;5013161;28;24456;-75
2021/11/18 08:57:49;;;;;;;6.80;5.00;;;;;;;5.23;100.00;97131.25;5013466;28;24412;-75
2021/11/18 09:00:20;;;;;;;5.38;4.45;;;;;;;5.26;100.00;97138.84;5012884;28;24972;-75
2021/11/18 09:02:47;;;;;;;9.90;5.40;;;;;;;5.26;100.00;97133.72;5013370;28;24952;-75
2021/11/18 09:05:14;;;;;;;5.65;4.63;;;;;;;5.32;100.00;97141.31;5013294;28;24420;-75
2021/11/18 09:07:40;;;;;;;9.55;5.60;;;;;;;5.36;100.00;97141.25;5026465;28;24435;-76
2021/11/18 09:10:08;;;;;;;7.73;6.40;;;;;;;5.23;100.00;97141.50;5032874;28;24428;-75
2021/11/18 09:12:35;;;;;;;8.70;6.38;;;;;;;5.33;100.00;97139.59;5033251;28;24432;-75
2021/11/18 09:15:04;;;;;;;5.22;4.00;;;;;;;5.26;100.00;97140.59;5032683;28;24456;-76
2021/11/18 09:17:31;;;;;;;6.15;4.32;;;;;;;5.30;100.00;97143.09;5032818;28;24956;-75
2021/11/18 09:19:57;;;;;;;12.10;4.53;;;;;;;5.37;100.00;97133.50;5033029;28;24420;-75
2021/11/18 09:22:24;;;;;;;6.38;4.03;;;;;;;5.42;100.00;97139.41;5033011;28;24423;-75
2021/11/18 09:24:55;;;;;;;5.65;4.32;;;;;;;5.49;100.00;97140.16;5032808;28;24424;-76
2021/11/18 09:27:25;;;;;;;7.30;4.45;;;;;;;5.53;100.00;97146.91;5013146;28;24424;-75
2021/11/18 09:29:52;;;;;;;5.65;3.90;;;;;;;5.58;100.00;97147.66;5012913;28;24431;-75
2021/11/18 09:32:21;;;;;;;6.03;4.55;;;;;;;5.62;100.00;97156.97;5012766;28;24436;-74
2021/11/18 09:34:48;;;;;;;5.78;3.90;;;;;;;5.66;100.00;97163.75;5012411;28;24448;-75
2021/11/18 09:37:15;;;;;;;4.57;3.85;;;;;;;5.74;100.00;97169.56;5021721;28;24997;-75
2021/11/18 09:39:42;;;;;;;7.57;4.10;;;;;;;5.73;100.00;97167.03;5031916;28;24505;-75
2021/11/18 09:42:12;;;;;;;5.78;4.10;;;;;;;5.89;100.00;97164.97;5032254;28;24424;-72
2021/11/18 09:45:05;;;;;;;4.97;3.78;;;;;;;5.80;100.00;97158.31;5031686;28;24420;-75
2021/11/18 09:48:04;;;;;;;4.40;3.80;;;;;;;5.85;100.00;97153.91;5032274;28;24881;-75
2021/11/18 09:50:45;;;;;;;6.90;3.85;;;;;;;5.94;100.00;97146.03;5031893;28;24957;-75
2021/11/18 09:53:22;;;;;;;5.03;3.67;;;;;;;5.96;100.00;97151.13;5032195;28;24932;-75
2021/11/18 09:55:54;;;;;;;7.45;4.25;;;;;;;6.14;100.00;97153.28;5031596;28;24436;-74
2021/11/18 09:58:32;;;;;;;6.93;3.97;;;;;;;6.04;100.00;97155.25;5031893;28;24404;-75
2021/11/18 10:01:13;;;;;;;4.03;3.30;;;;;;;6.27;100.00;97152.13;5032210;28;24435;-76
2021/11/18 10:03:48;;;;;;;4.55;3.97;;;;;;;6.36;100.00;97158.78;5032591;28;24434;-75
2021/11/18 10:06:24;;;;;;;6.78;4.35;;;;;;;6.32;100.00;97154.59;5032048;28;24407;-74
2021/11/18 10:08:58;;;;;;;7.40;4.38;;;;;;;6.28;100.00;97150.41;5032569;28;24774;-75
2021/11/18 10:11:35;;;;;;;5.60;3.63;;;;;;;6.29;100.00;97150.34;5032112;28;24443;-75
2021/11/18 10:14:27;;;;;;;4.88;3.90;;;;;;;6.53;100.00;97143.78;5031872;28;24419;-75
2021/11/18 10:17:00;;;;;;;6.30;3.88;;;;;;;6.94;100.00;97151.34;5025732;28;24448;-75
2021/11/18 10:19:30;;;;;;;8.43;3.88;;;;;;;7.01;100.00;97155.44;5017335;28;24440;-75
2021/11/18 10:21:59;;;;;;;4.78;3.63;;;;;;;7.36;100.00;97146.75;5031052;28;24454;-76
2021/11/18 10:24:28;;;;;;;6.38;3.60;;;;;;;7.14;100.00;97151.63;5021703;28;24447;-76
2021/11/18 10:26:58;;;;;;;5.18;3.50;;;;;;;6.87;100.00;97145.50;5024210;28;24451;-76
2021/11/18 10:29:27;;;;;;;6.38;3.63;;;;;;;6.92;100.00;97140.22;5025073;28;24467;-76
2021/11/18 10:31:59;;;;;;;5.07;3.22;;;;;;;7.32;100.00;97150.28;5023298;28;24424;-76
2021/11/18 10:34:29;;;;;;;6.68;3.58;;;;;;;7.70;100.00;97151.75;5022954;28;24439;-76
2021/11/18 10:37:07;;;;;;;9.90;3.58;;;;;;;7.80;100.00;97146.34;5011646;28;24428;-76
2021/11/18 10:39:44;;;;;;;4.60;3.00;;;;;;;7.97;100.00;97144.09;5011063;28;24435;-76
2021/11/18 10:42:19;;;;;;;4.30;3.13;;;;;;;7.83;100.00;97141.94;5019814;28;24854;-76
2021/11/18 10:44:49;;;;;;;2.75;1.90;;;;;;;7.57;100.00;97142.72;5022236;28;24436;-76
2021/11/18 10:47:20;;;;;;;1.73;1.60;;;;;;;7.46;100.00;97137.88;5031219;28;24992;-76
2021/11/18 10:49:57;;;;;;;1.70;1.52;;;;;;;7.51;100.00;97130.84;5023901;28;24435;-76
2021/11/18 10:52:32;;;;;;;2.25;1.48;;;;;;;7.43;100.00;97126.78;5022252;28;24440;-76
2021/11/18 10:55:09;;;;;;;2.97;1.85;;;;;;;7.32;100.00;97129.69;5023436;28;24459;-76
2021/11/18 10:57:50;;;;;;;1.90;1.80;;;;;;;7.22;100.00;97120.50;5026035;28;25012;-76
2021/11/18 11:00:21;;;;;;;2.38;1.75;;;;;;;7.11;100.00;97117.38;5029518;28;24463;-76
2021/11/18 11:02:48;;;;;;;1.30;1.20;;;;;;;7.14;100.00;97107.84;5011569;28;24555;-76
2021/11/18 11:05:32;;;;;;;3.17;1.70;;;;;;;7.15;100.00;97111.25;5010876;28;24424;-76
2021/11/18 11:08:01;;;;;;;1.73;1.63;;;;;;;7.16;100.00;97095.78;5011497;28;25029;-76
2021/11/18 11:10:33;;;;;;;1.20;1.10;;;;;;;7.20;100.00;97099.94;5030843;28;24444;-76
2021/11/18 11:13:04;;;;;;;2.23;1.80;;;;;;;7.32;100.00;97088.44;5011392;28;25009;-76
2021/11/18 11:16:14;;;;;;;2.60;1.35;;;;;;;7.44;100.00;97094.97;5010644;28;24980;-76
2021/11/18 11:18:49;;;;;;;1.50;1.40;;;;;;;7.48;99.75;97104.28;5011384;28;24443;-76
2021/11/18 11:21:29;;;;;;;1.38;1.05;;;;;;;7.59;99.72;97101.41;5028383;28;24439;-76
2021/11/18 11:24:14;;;;;;;1.98;1.25;;;;;;;7.34;99.44;97111.56;5010803;28;24423;-76
2021/11/18 11:27:05;;;;;;;1.70;1.60;;;;;;;7.51;99.90;97109.38;5010819;28;24412;-75
2021/11/18 11:29:38;;;;;;;2.10;1.65;;;;;;;7.55;100.00;97108.38;5018857;28;24443;-75
2021/11/18 11:32:14;;;;;;;1.70;1.52;;;;;;;7.65;100.00;97108.97;5030671;28;24801;-75
2021/11/18 11:34:57;;;;;;;1.88;1.70;;;;;;;7.49;100.00;97111.13;5030327;28;24435;-75
2021/11/18 11:37:37;;;;;;;1.48;1.38;;;;;;;7.43;100.00;97108.75;5030819;28;24416;-75
2021/11/18 11:40:09;;;;;;;2.80;1.70;;;;;;;7.37;100.00;97099.44;5030429;28;24424;-77
2021/11/18 11:42:53;;;;;;;1.52;1.35;;;;;;;7.52;99.44;97096.41;5030245;28;24967;-75